sensor_id;sensor_type;location;lat;lon;timestamp;pressure;altitude;pressure_sealevel;temperature
53412;BMP280;39307;52.870;13.660;2023-06-24T00:02:12;101552.06;;;16.57
53412;BMP280;39307;52.870;13.660;2023-06-24T00:04:39;101547.00;;;16.56
53412;BMP280;39307;52.870;13.660;2023-06-24T00:07:05;101552.28;;;16.56
53412;BMP280;39307;52.870;13.660;2023-06-24T00:09:31;101548.81;;;16.55
53412;BMP280;39307;52.870;13.660;2023-06-24T00:11:58;101554.09;;;16.55
53412;BMP280;39307;52.870;13.660;2023-06-24T00:14:25;101556.16;;;16.53
53412;BMP280;39307;52.870;13.660;2023-06-24T00:16:51;101554.09;;;16.49
53412;BMP280;39307;52.870;13.660;2023-06-24T00:19:23;101556.13;;;16.47
53412;BMP280;39307;52.870;13.660;2023-06-24T00:21:49;101560.41;;;16.48
53412;BMP280;39307;52.870;13.660;2023-06-24T00:24:16;101566.09;;;16.45
53412;BMP280;39307;52.870;13.660;2023-06-24T00:26:43;101571.59;;;16.44
53412;BMP280;39307;52.870;13.660;2023-06-24T00:29:09;101576.88;;;16.44
53412;BMP280;39307;52.870;13.660;2023-06-24T00:31:35;101586.00;;;16.41
53412;BMP280;39307;52.870;13.660;2023-06-24T00:34:01;101589.03;;;16.38
53412;BMP280;39307;52.870;13.660;2023-06-24T00:36:28;101584.56;;;16.39
53412;BMP280;39307;52.870;13.660;2023-06-24T00:38:55;101588.41;;;16.36
53412;BMP280;39307;52.870;13.660;2023-06-24T00:41:21;101587.81;;;16.34
53412;BMP280;39307;52.870;13.660;2023-06-24T00:43:48;101586.56;;;16.30
53412;BMP280;39307;52.870;13.660;2023-06-24T00:46:14;101581.50;;;16.29
53412;BMP280;39307;52.870;13.660;2023-06-24T00:48:41;101587.38;;;16.31
53412;BMP280;39307;52.870;13.660;2023-06-24T00:51:07;101586.97;;;16.27
53412;BMP280;39307;52.870;13.660;2023-06-24T00:53:33;101589.81;;;16.26
53412;BMP280;39307;52.870;13.660;2023-06-24T00:55:59;101584.13;;;16.22
53412;BMP280;39307;52.870;13.660;2023-06-24T00:58:26;101585.72;;;16.17
53412;BMP280;39307;52.870;13.660;2023-06-24T01:00:52;101591.59;;;16.13
53412;BMP280;39307;52.870;13.660;2023-06-24T01:03:18;101596.88;;;16.13
53412;BMP280;39307;52.870;13.660;2023-06-24T01:05:44;101586.66;;;16.10
53412;BMP280;39307;52.870;13.660;2023-06-24T01:08:11;101584.25;;;16.08
53412;BMP280;39307;52.870;13.660;2023-06-24T01:10:37;101594.81;;;16.08
53412;BMP280;39307;52.870;13.660;2023-06-24T01:13:03;101594.00;;;16.08
53412;BMP280;39307;52.870;13.660;2023-06-24T01:15:30;101583.41;;;16.01
53412;BMP280;39307;52.870;13.660;2023-06-24T01:20:58;101597.13;;;15.84
53412;BMP280;39307;52.870;13.660;2023-06-24T01:23:56;101595.91;;;15.80
53412;BMP280;39307;52.870;13.660;2023-06-24T01:29:18;101593.41;;;15.72
53412;BMP280;39307;52.870;13.660;2023-06-24T01:37:14;101591.72;;;15.59
53412;BMP280;39307;52.870;13.660;2023-06-24T01:39:47;101593.72;;;15.57
53412;BMP280;39307;52.870;13.660;2023-06-24T01:42:17;101593.50;;;15.58
53412;BMP280;39307;52.870;13.660;2023-06-24T01:44:48;101593.50;;;15.58
53412;BMP280;39307;52.870;13.660;2023-06-24T01:47:20;101590.06;;;15.58
53412;BMP280;39307;52.870;13.660;2023-06-24T01:49:47;101590.47;;;15.61
53412;BMP280;39307;52.870;13.660;2023-06-24T01:52:16;101589.69;;;15.60
53412;BMP280;39307;52.870;13.660;2023-06-24T01:54:44;101580.31;;;15.58
53412;BMP280;39307;52.870;13.660;2023-06-24T01:57:15;101593.72;;;15.57
53412;BMP280;39307;52.870;13.660;2023-06-24T01:59:44;101583.56;;;15.54
53412;BMP280;39307;52.870;13.660;2023-06-24T02:02:12;101586.75;;;15.49
53412;BMP280;39307;52.870;13.660;2023-06-24T02:04:39;101587.59;;;15.50
53412;BMP280;39307;52.870;13.660;2023-06-24T02:07:06;101581.88;;;15.46
53412;BMP280;39307;52.870;13.660;2023-06-24T02:09:34;101587.34;;;15.45
53412;BMP280;39307;52.870;13.660;2023-06-24T02:12:02;101581.44;;;15.43
53412;BMP280;39307;52.870;13.660;2023-06-24T02:14:30;101580.63;;;15.42
53412;BMP280;39307;52.870;13.660;2023-06-24T02:16:58;101586.72;;;15.43
53412;BMP280;39307;52.870;13.660;2023-06-24T02:19:29;101571.09;;;15.41
53412;BMP280;39307;52.870;13.660;2023-06-24T02:21:56;101575.56;;;15.41
53412;BMP280;39307;52.870;13.660;2023-06-24T02:24:23;101568.25;;;15.43
53412;BMP280;39307;52.870;13.660;2023-06-24T02:26:51;101567.66;;;15.41
53412;BMP280;39307;52.870;13.660;2023-06-24T02:29:17;101573.09;;;15.39
53412;BMP280;39307;52.870;13.660;2023-06-24T02:31:44;101561.09;;;15.37
53412;BMP280;39307;52.870;13.660;2023-06-24T02:34:11;101557.88;;;15.35
53412;BMP280;39307;52.870;13.660;2023-06-24T02:36:37;101562.72;;;15.31
53412;BMP280;39307;52.870;13.660;2023-06-24T02:39:03;101574.47;;;15.29
53412;BMP280;39307;52.870;13.660;2023-06-24T02:41:30;101574.63;;;15.28
53412;BMP280;39307;52.870;13.660;2023-06-24T02:43:56;101574.22;;;15.24
53412;BMP280;39307;52.870;13.660;2023-06-24T02:46:22;101575.22;;;15.23
53412;BMP280;39307;52.870;13.660;2023-06-24T02:48:51;101575.41;;;15.22
53412;BMP280;39307;52.870;13.660;2023-06-24T02:51:18;101581.53;;;15.22
53412;BMP280;39307;52.870;13.660;2023-06-24T02:53:45;101589.44;;;15.22
53412;BMP280;39307;52.870;13.660;2023-06-24T02:56:12;101581.69;;;15.21
53412;BMP280;39307;52.870;13.660;2023-06-24T02:58:39;101589.81;;;15.19
53412;BMP280;39307;52.870;13.660;2023-06-24T03:01:06;101586.94;;;15.14
53412;BMP280;39307;52.870;13.660;2023-06-24T03:03:32;101594.03;;;15.14
53412;BMP280;39307;52.870;13.660;2023-06-24T03:05:59;101604.38;;;15.15
53412;BMP280;39307;52.870;13.660;2023-06-24T03:08:27;101603.13;;;15.11
53412;BMP280;39307;52.870;13.660;2023-06-24T03:10:57;101613.47;;;15.13
53412;BMP280;39307;52.870;13.660;2023-06-24T03:13:23;101615.31;;;15.12
53412;BMP280;39307;52.870;13.660;2023-06-24T03:15:50;101614.94;;;15.15
53412;BMP280;39307;52.870;13.660;2023-06-24T03:18:16;101616.75;;;15.15
53412;BMP280;39307;52.870;13.660;2023-06-24T03:20:43;101617.38;;;15.17
53412;BMP280;39307;52.870;13.660;2023-06-24T03:23:09;101616.75;;;15.15
53412;BMP280;39307;52.870;13.660;2023-06-24T03:25:35;101618.75;;;15.13
53412;BMP280;39307;52.870;13.660;2023-06-24T03:28:01;101633.78;;;15.12
53412;BMP280;39307;52.870;13.660;2023-06-24T03:30:28;101625.84;;;15.12
53412;BMP280;39307;52.870;13.660;2023-06-24T03:32:54;101630.53;;;15.10
53412;BMP280;39307;52.870;13.660;2023-06-24T03:35:20;101633.16;;;15.10
53412;BMP280;39307;52.870;13.660;2023-06-24T03:37:47;101624.63;;;15.08
53412;BMP280;39307;52.870;13.660;2023-06-24T03:40:13;101632.88;;;15.05
53412;BMP280;39307;52.870;13.660;2023-06-24T03:42:39;101630.91;;;15.07
53412;BMP280;39307;52.870;13.660;2023-06-24T03:45:06;101633.53;;;15.07
53412;BMP280;39307;52.870;13.660;2023-06-24T03:47:32;101634.88;;;15.03
53412;BMP280;39307;52.870;13.660;2023-06-24T03:49:58;101636.69;;;15.03
53412;BMP280;39307;52.870;13.660;2023-06-24T03:52:25;101634.28;;;15.01
53412;BMP280;39307;52.870;13.660;2023-06-24T03:54:51;101629.00;;;15.01
53412;BMP280;39307;52.870;13.660;2023-06-24T03:57:17;101631.63;;;15.01
53412;BMP280;39307;52.870;13.660;2023-06-24T03:59:43;101629.16;;;15.00
53412;BMP280;39307;52.870;13.660;2023-06-24T04:02:10;101640.91;;;14.98
53412;BMP280;39307;52.870;13.660;2023-06-24T04:04:36;101631.19;;;14.98
53412;BMP280;39307;52.870;13.660;2023-06-24T04:07:02;101629.38;;;14.99
53412;BMP280;39307;52.870;13.660;2023-06-24T04:09:29;101636.28;;;15.00
53412;BMP280;39307;52.870;13.660;2023-06-24T04:11:57;101642.56;;;14.99
53412;BMP280;39307;52.870;13.660;2023-06-24T04:14:23;101640.28;;;14.96
53412;BMP280;39307;52.870;13.660;2023-06-24T04:16:50;101651.66;;;14.96
53412;BMP280;39307;52.870;13.660;2023-06-24T04:19:15;101649.66;;;14.98
53412;BMP280;39307;52.870;13.660;2023-06-24T04:21:42;101647.03;;;14.98
53412;BMP280;39307;52.870;13.660;2023-06-24T04:24:08;101657.38;;;15.00
53412;BMP280;39307;52.870;13.660;2023-06-24T04:26:34;101644.00;;;15.01
53412;BMP280;39307;52.870;13.660;2023-06-24T04:29:00;101644.63;;;15.03
53412;BMP280;39307;52.870;13.660;2023-06-24T04:31:27;101643.81;;;15.02
53412;BMP280;39307;52.870;13.660;2023-06-24T04:33:53;101642.19;;;15.01
53412;BMP280;39307;52.870;13.660;2023-06-24T04:36:19;101640.16;;;15.03
53412;BMP280;39307;52.870;13.660;2023-06-24T04:38:46;101644.44;;;15.04
53412;BMP280;39307;52.870;13.660;2023-06-24T04:41:12;101638.16;;;15.05
53412;BMP280;39307;52.870;13.660;2023-06-24T04:43:38;101642.41;;;15.06
53412;BMP280;39307;52.870;13.660;2023-06-24T04:46:04;101641.25;;;15.09
53412;BMP280;39307;52.870;13.660;2023-06-24T04:48:30;101647.97;;;15.11
53412;BMP280;39307;52.870;13.660;2023-06-24T04:50:57;101647.59;;;15.14
53412;BMP280;39307;52.870;13.660;2023-06-24T04:53:23;101654.31;;;15.17
53412;BMP280;39307;52.870;13.660;2023-06-24T04:55:49;101661.03;;;15.19
53412;BMP280;39307;52.870;13.660;2023-06-24T04:58:15;101659.00;;;15.21
53412;BMP280;39307;52.870;13.660;2023-06-24T05:00:41;101661.47;;;15.23
53412;BMP280;39307;52.870;13.660;2023-06-24T05:03:07;101656.81;;;15.25
53412;BMP280;39307;52.870;13.660;2023-06-24T05:05:34;101650.75;;;15.30
53412;BMP280;39307;52.870;13.660;2023-06-24T05:08:00;101652.84;;;15.35
53412;BMP280;39307;52.870;13.660;2023-06-24T05:10:26;101653.72;;;15.42
53412;BMP280;39307;52.870;13.660;2023-06-24T05:12:52;101654.13;;;15.45
53412;BMP280;39307;52.870;13.660;2023-06-24T05:15:18;101657.84;;;15.51
53412;BMP280;39307;52.870;13.660;2023-06-24T05:17:44;101667.63;;;15.57
53412;BMP280;39307;52.870;13.660;2023-06-24T05:20:10;101665.84;;;15.63
53412;BMP280;39307;52.870;13.660;2023-06-24T05:22:37;101673.38;;;15.66
53412;BMP280;39307;52.870;13.660;2023-06-24T05:25:03;101677.06;;;15.72
53412;BMP280;39307;52.870;13.660;2023-06-24T05:27:29;101667.56;;;15.77
53412;BMP280;39307;52.870;13.660;2023-06-24T05:29:56;101677.75;;;15.80
53412;BMP280;39307;52.870;13.660;2023-06-24T05:32:22;101666.41;;;15.86
53412;BMP280;39307;52.870;13.660;2023-06-24T05:34:48;101668.47;;;15.90
53412;BMP280;39307;52.870;13.660;2023-06-24T05:37:14;101672.16;;;15.96
53412;BMP280;39307;52.870;13.660;2023-06-24T05:39:40;101670.94;;;15.98
53412;BMP280;39307;52.870;13.660;2023-06-24T05:42:06;101676.66;;;16.02
53412;BMP280;39307;52.870;13.660;2023-06-24T05:44:33;101671.56;;;16.00
53412;BMP280;39307;52.870;13.660;2023-06-24T05:46:59;101677.25;;;16.04
53412;BMP280;39307;52.870;13.660;2023-06-24T05:49:25;101676.34;;;16.11
53412;BMP280;39307;52.870;13.660;2023-06-24T05:51:51;101678.59;;;16.14
53412;BMP280;39307;52.870;13.660;2023-06-24T05:54:17;101675.16;;;16.20
53412;BMP280;39307;52.870;13.660;2023-06-24T05:56:43;101681.88;;;16.22
53412;BMP280;39307;52.870;13.660;2023-06-24T05:59:10;101671.34;;;16.29
53412;BMP280;39307;52.870;13.660;2023-06-24T06:01:36;101668.34;;;16.38
53412;BMP280;39307;52.870;13.660;2023-06-24T06:04:02;101679.56;;;16.47
53412;BMP280;39307;52.870;13.660;2023-06-24T06:06:28;101682.22;;;16.53
53412;BMP280;39307;52.870;13.660;2023-06-24T06:08:55;101686.47;;;16.54
53412;BMP280;39307;52.870;13.660;2023-06-24T06:11:22;101692.59;;;16.61
53412;BMP280;39307;52.870;13.660;2023-06-24T06:13:48;101696.69;;;16.70
53412;BMP280;39307;52.870;13.660;2023-06-24T06:16:14;101699.19;;;16.77
53412;BMP280;39307;52.870;13.660;2023-06-24T06:18:40;101701.81;;;16.77
53412;BMP280;39307;52.870;13.660;2023-06-24T06:21:06;101694.31;;;16.81
53412;BMP280;39307;52.870;13.660;2023-06-24T06:23:32;101700.41;;;16.81
53412;BMP280;39307;52.870;13.660;2023-06-24T06:25:58;101697.59;;;16.89
53412;BMP280;39307;52.870;13.660;2023-06-24T06:28:25;101694.13;;;16.95
53412;BMP280;39307;52.870;13.660;2023-06-24T06:30:51;101693.53;;;17.00
53412;BMP280;39307;52.870;13.660;2023-06-24T06:33:17;101693.53;;;17.06
53412;BMP280;39307;52.870;13.660;2023-06-24T06:35:43;101690.91;;;17.12
53412;BMP280;39307;52.870;13.660;2023-06-24T06:38:10;101679.53;;;17.18
53412;BMP280;39307;52.870;13.660;2023-06-24T06:40:36;101667.13;;;17.25
53412;BMP280;39307;52.870;13.660;2023-06-24T06:43:02;101666.13;;;17.33
53412;BMP280;39307;52.870;13.660;2023-06-24T06:45:28;101671.22;;;17.40
53412;BMP280;39307;52.870;13.660;2023-06-24T06:47:54;101671.63;;;17.44
53412;BMP280;39307;52.870;13.660;2023-06-24T06:50:20;101681.59;;;17.48
53412;BMP280;39307;52.870;13.660;2023-06-24T06:52:47;101680.38;;;17.51
53412;BMP280;39307;52.870;13.660;2023-06-24T06:55:13;101674.44;;;17.55
53412;BMP280;39307;52.870;13.660;2023-06-24T06:57:39;101677.91;;;17.62
53412;BMP280;39307;52.870;13.660;2023-06-24T07:00:05;101672.63;;;17.62
53412;BMP280;39307;52.870;13.660;2023-06-24T07:02:32;101676.47;;;17.66
53412;BMP280;39307;52.870;13.660;2023-06-24T07:04:58;101668.09;;;17.75
53412;BMP280;39307;52.870;13.660;2023-06-24T07:07:24;101672.16;;;17.84
53412;BMP280;39307;52.870;13.660;2023-06-24T07:09:50;101670.53;;;17.90
53412;BMP280;39307;52.870;13.660;2023-06-24T07:12:17;101667.66;;;17.91
53412;BMP280;39307;52.870;13.660;2023-06-24T07:14:43;101673.97;;;17.96
53412;BMP280;39307;52.870;13.660;2023-06-24T07:17:09;101673.56;;;17.99
53412;BMP280;39307;52.870;13.660;2023-06-24T07:19:35;101679.28;;;17.96
53412;BMP280;39307;52.870;13.660;2023-06-24T07:22:02;101676.84;;;17.95
53412;BMP280;39307;52.870;13.660;2023-06-24T07:24:28;101679.28;;;18.03
53412;BMP280;39307;52.870;13.660;2023-06-24T07:26:54;101684.56;;;18.09
53412;BMP280;39307;52.870;13.660;2023-06-24T07:29:20;101688.00;;;18.22
53412;BMP280;39307;52.870;13.660;2023-06-24T07:31:46;101690.00;;;18.33
53412;BMP280;39307;52.870;13.660;2023-06-24T07:34:12;101686.91;;;18.43
53412;BMP280;39307;52.870;13.660;2023-06-24T07:36:39;101691.56;;;18.53
53412;BMP280;39307;52.870;13.660;2023-06-24T07:39:05;101684.56;;;18.65
53412;BMP280;39307;52.870;13.660;2023-06-24T07:41:32;101692.88;;;18.75
53412;BMP280;39307;52.870;13.660;2023-06-24T07:43:58;101686.91;;;18.86
53412;BMP280;39307;52.870;13.660;2023-06-24T07:46:24;101693.16;;;18.98
53412;BMP280;39307;52.870;13.660;2023-06-24T07:48:51;101703.28;;;19.13
53412;BMP280;39307;52.870;13.660;2023-06-24T07:51:17;101682.69;;;19.33
53412;BMP280;39307;52.870;13.660;2023-06-24T07:53:43;101685.09;;;19.41
53412;BMP280;39307;52.870;13.660;2023-06-24T07:56:09;101692.66;;;19.62
53412;BMP280;39307;52.870;13.660;2023-06-24T07:58:36;101695.50;;;19.91
53412;BMP280;39307;52.870;13.660;2023-06-24T08:01:02;101690.84;;;20.04
53412;BMP280;39307;52.870;13.660;2023-06-24T08:03:28;101698.81;;;20.04
53412;BMP280;39307;52.870;13.660;2023-06-24T08:05:55;101697.34;;;20.08
53412;BMP280;39307;52.870;13.660;2023-06-24T08:08:21;101697.50;;;20.30
53412;BMP280;39307;52.870;13.660;2023-06-24T08:10:47;101702.31;;;20.57
53412;BMP280;39307;52.870;13.660;2023-06-24T08:13:14;101695.56;;;20.73
53412;BMP280;39307;52.870;13.660;2023-06-24T08:15:40;101702.44;;;20.80
53412;BMP280;39307;52.870;13.660;2023-06-24T08:18:06;101700.44;;;20.76
53412;BMP280;39307;52.870;13.660;2023-06-24T08:20:32;101698.94;;;20.80
53412;BMP280;39307;52.870;13.660;2023-06-24T08:22:58;101701.66;;;20.91
53412;BMP280;39307;52.870;13.660;2023-06-24T08:25:24;101705.00;;;20.98
53412;BMP280;39307;52.870;13.660;2023-06-24T08:27:50;101709.34;;;21.10
53412;BMP280;39307;52.870;13.660;2023-06-24T08:30:17;101710.44;;;21.20
53412;BMP280;39307;52.870;13.660;2023-06-24T08:32:43;101712.38;;;21.25
53412;BMP280;39307;52.870;13.660;2023-06-24T08:35:09;101699.28;;;21.41
53412;BMP280;39307;52.870;13.660;2023-06-24T08:37:36;101696.63;;;21.75
53412;BMP280;39307;52.870;13.660;2023-06-24T08:40:03;101700.19;;;21.92
53412;BMP280;39307;52.870;13.660;2023-06-24T08:42:30;101705.19;;;22.22
53412;BMP280;39307;52.870;13.660;2023-06-24T08:44:56;101705.22;;;22.50
53412;BMP280;39307;52.870;13.660;2023-06-24T08:47:24;101684.63;;;22.73
53412;BMP280;39307;52.870;13.660;2023-06-24T08:50:07;101699.81;;;22.84
53412;BMP280;39307;52.870;13.660;2023-06-24T08:52:36;101699.84;;;22.72
53412;BMP280;39307;52.870;13.660;2023-06-24T08:55:06;101704.13;;;22.73
53412;BMP280;39307;52.870;13.660;2023-06-24T08:57:32;101705.56;;;22.92
53412;BMP280;39307;52.870;13.660;2023-06-24T08:59:59;101702.63;;;23.21
53412;BMP280;39307;52.870;13.660;2023-06-24T09:02:25;101700.44;;;23.34
53412;BMP280;39307;52.870;13.660;2023-06-24T09:04:51;101687.28;;;23.60
53412;BMP280;39307;52.870;13.660;2023-06-24T09:07:27;101694.41;;;23.87
53412;BMP280;39307;52.870;13.660;2023-06-24T09:09:54;101687.97;;;24.04
53412;BMP280;39307;52.870;13.660;2023-06-24T09:12:20;101689.84;;;24.25
53412;BMP280;39307;52.870;13.660;2023-06-24T09:14:49;101684.47;;;24.41
53412;BMP280;39307;52.870;13.660;2023-06-24T09:17:16;101697.34;;;24.65
53412;BMP280;39307;52.870;13.660;2023-06-24T09:19:43;101682.00;;;24.82
53412;BMP280;39307;52.870;13.660;2023-06-24T09:22:09;101686.28;;;24.83
53412;BMP280;39307;52.870;13.660;2023-06-24T09:24:37;101675.91;;;24.65
53412;BMP280;39307;52.870;13.660;2023-06-24T09:27:03;101681.91;;;24.51
53412;BMP280;39307;52.870;13.660;2023-06-24T09:29:36;101688.44;;;24.60
53412;BMP280;39307;52.870;13.660;2023-06-24T09:32:05;101683.97;;;24.70
53412;BMP280;39307;52.870;13.660;2023-06-24T09:34:32;101681.38;;;25.01
53412;BMP280;39307;52.870;13.660;2023-06-24T09:36:59;101673.59;;;25.26
53412;BMP280;39307;52.870;13.660;2023-06-24T09:39:27;101675.94;;;25.49
53412;BMP280;39307;52.870;13.660;2023-06-24T09:41:53;101677.59;;;25.54
53412;BMP280;39307;52.870;13.660;2023-06-24T09:44:19;101674.50;;;25.72
53412;BMP280;39307;52.870;13.660;2023-06-24T09:46:45;101671.31;;;25.80
53412;BMP280;39307;52.870;13.660;2023-06-24T09:49:12;101669.78;;;25.89
53412;BMP280;39307;52.870;13.660;2023-06-24T09:51:39;101663.13;;;26.01
53412;BMP280;39307;52.870;13.660;2023-06-24T09:54:06;101670.94;;;26.03
53412;BMP280;39307;52.870;13.660;2023-06-24T09:56:36;101660.72;;;26.00
53412;BMP280;39307;52.870;13.660;2023-06-24T09:59:04;101653.72;;;25.94
53412;BMP280;39307;52.870;13.660;2023-06-24T10:01:31;101663.31;;;25.85
53412;BMP280;39307;52.870;13.660;2023-06-24T10:03:58;101663.03;;;25.81
53412;BMP280;39307;52.870;13.660;2023-06-24T10:06:26;101651.47;;;25.76
53412;BMP280;39307;52.870;13.660;2023-06-24T10:08:52;101660.53;;;25.70
53412;BMP280;39307;52.870;13.660;2023-06-24T10:11:19;101656.78;;;25.71
53412;BMP280;39307;52.870;13.660;2023-06-24T10:13:45;101650.38;;;25.72
53412;BMP280;39307;52.870;13.660;2023-06-24T10:16:11;101658.13;;;25.69
53412;BMP280;39307;52.870;13.660;2023-06-24T10:18:39;101653.06;;;25.72
53412;BMP280;39307;52.870;13.660;2023-06-24T10:21:09;101652.56;;;25.44
53412;BMP280;39307;52.870;13.660;2023-06-24T10:23:42;101647.66;;;25.36
53412;BMP280;39307;52.870;13.660;2023-06-24T10:26:26;101649.50;;;25.31
53412;BMP280;39307;52.870;13.660;2023-06-24T10:34:31;101641.66;;;25.51
53412;BMP280;39307;52.870;13.660;2023-06-24T10:42:38;101649.63;;;25.81
53412;BMP280;39307;52.870;13.660;2023-06-24T10:47:38;101640.03;;;25.95
53412;BMP280;39307;52.870;13.660;2023-06-24T10:50:05;101636.59;;;25.59
53412;BMP280;39307;52.870;13.660;2023-06-24T10:52:31;101631.59;;;25.72
53412;BMP280;39307;52.870;13.660;2023-06-24T10:54:58;101637.66;;;25.99
53412;BMP280;39307;52.870;13.660;2023-06-24T10:57:28;101631.06;;;26.21
53412;BMP280;39307;52.870;13.660;2023-06-24T10:59:55;101629.22;;;25.80
53412;BMP280;39307;52.870;13.660;2023-06-24T11:02:24;101623.41;;;25.93
53412;BMP280;39307;52.870;13.660;2023-06-24T11:04:52;101622.38;;;26.09
53412;BMP280;39307;52.870;13.660;2023-06-24T11:07:20;101626.78;;;26.20
53412;BMP280;39307;52.870;13.660;2023-06-24T11:09:54;101625.44;;;26.27
53412;BMP280;39307;52.870;13.660;2023-06-24T11:12:25;101616.38;;;26.38
53412;BMP280;39307;52.870;13.660;2023-06-24T11:15:00;101612.34;;;26.55
53412;BMP280;39307;52.870;13.660;2023-06-24T11:17:27;101602.72;;;26.64
53412;BMP280;39307;52.870;13.660;2023-06-24T11:19:54;101617.75;;;26.70
53412;BMP280;39307;52.870;13.660;2023-06-24T11:22:21;101624.78;;;26.86
53412;BMP280;39307;52.870;13.660;2023-06-24T11:24:47;101623.50;;;27.08
53412;BMP280;39307;52.870;13.660;2023-06-24T11:27:13;101614.63;;;27.17
53412;BMP280;39307;52.870;13.660;2023-06-24T11:29:39;101610.59;;;27.39
53412;BMP280;39307;52.870;13.660;2023-06-24T11:32:09;101607.59;;;27.41
53412;BMP280;39307;52.870;13.660;2023-06-24T11:34:36;101611.63;;;27.53
53412;BMP280;39307;52.870;13.660;2023-06-24T11:37:14;101603.25;;;27.69
53412;BMP280;39307;52.870;13.660;2023-06-24T11:39:43;101603.72;;;27.86
53412;BMP280;39307;52.870;13.660;2023-06-24T11:42:11;101600.59;;;27.59
53412;BMP280;39307;52.870;13.660;2023-06-24T11:44:44;101598.94;;;27.78
53412;BMP280;39307;52.870;13.660;2023-06-24T11:47:11;101605.06;;;27.98
53412;BMP280;39307;52.870;13.660;2023-06-24T11:49:55;101597.44;;;28.20
53412;BMP280;39307;52.870;13.660;2023-06-24T11:52:40;101600.31;;;28.38
53412;BMP280;39307;52.870;13.660;2023-06-24T11:55:17;101592.50;;;28.37
53412;BMP280;39307;52.870;13.660;2023-06-24T11:57:57;101583.09;;;28.34
53412;BMP280;39307;52.870;13.660;2023-06-24T12:02:53;101590.28;;;28.43
53412;BMP280;39307;52.870;13.660;2023-06-24T12:05:30;101581.16;;;28.40
53412;BMP280;39307;52.870;13.660;2023-06-24T12:07:59;101598.94;;;28.41
53412;BMP280;39307;52.870;13.660;2023-06-24T12:10:26;101594.38;;;28.36
53412;BMP280;39307;52.870;13.660;2023-06-24T12:12:53;101587.63;;;28.48
53412;BMP280;39307;52.870;13.660;2023-06-24T12:15:19;101580.78;;;28.66
53412;BMP280;39307;52.870;13.660;2023-06-24T12:17:45;101579.44;;;28.63
53412;BMP280;39307;52.870;13.660;2023-06-24T12:20:12;101581.97;;;28.83
53412;BMP280;39307;52.870;13.660;2023-06-24T12:22:39;101567.81;;;29.01
53412;BMP280;39307;52.870;13.660;2023-06-24T12:25:05;101564.88;;;28.97
53412;BMP280;39307;52.870;13.660;2023-06-24T12:27:48;101577.00;;;29.00
53412;BMP280;39307;52.870;13.660;2023-06-24T12:30:18;101577.78;;;29.05
53412;BMP280;39307;52.870;13.660;2023-06-24T12:32:45;101564.53;;;29.03
53412;BMP280;39307;52.870;13.660;2023-06-24T12:35:11;101562.34;;;29.10
53412;BMP280;39307;52.870;13.660;2023-06-24T12:37:38;101567.38;;;29.22
53412;BMP280;39307;52.870;13.660;2023-06-24T12:40:05;101568.59;;;29.34
53412;BMP280;39307;52.870;13.660;2023-06-24T12:42:31;101563.16;;;29.39
53412;BMP280;39307;52.870;13.660;2023-06-24T12:44:59;101570.59;;;29.47
53412;BMP280;39307;52.870;13.660;2023-06-24T12:47:25;101563.03;;;29.49
53412;BMP280;39307;52.870;13.660;2023-06-24T12:49:52;101565.44;;;29.50
53412;BMP280;39307;52.870;13.660;2023-06-24T12:52:18;101561.13;;;29.26
53412;BMP280;39307;52.870;13.660;2023-06-24T12:54:44;101565.63;;;29.02
53412;BMP280;39307;52.870;13.660;2023-06-24T12:57:11;101559.41;;;29.07
53412;BMP280;39307;52.870;13.660;2023-06-24T12:59:37;101564.53;;;29.08
53412;BMP280;39307;52.870;13.660;2023-06-24T13:02:03;101574.69;;;28.83
53412;BMP280;39307;52.870;13.660;2023-06-24T13:04:29;101565.41;;;28.99
53412;BMP280;39307;52.870;13.660;2023-06-24T13:06:55;101561.28;;;29.11
53412;BMP280;39307;52.870;13.660;2023-06-24T13:09:21;101556.16;;;29.10
53412;BMP280;39307;52.870;13.660;2023-06-24T13:11:47;101560.00;;;28.99
53412;BMP280;39307;52.870;13.660;2023-06-24T13:14:13;101559.44;;;29.02
53412;BMP280;39307;52.870;13.660;2023-06-24T13:16:39;101560.19;;;29.12
53412;BMP280;39307;52.870;13.660;2023-06-24T13:19:06;101555.91;;;29.06
53412;BMP280;39307;52.870;13.660;2023-06-24T13:21:32;101553.69;;;29.13
53412;BMP280;39307;52.870;13.660;2023-06-24T13:23:59;101555.34;;;29.09
53412;BMP280;39307;52.870;13.660;2023-06-24T13:26:25;101564.81;;;29.07
53412;BMP280;39307;52.870;13.660;2023-06-24T13:28:51;101562.69;;;29.04
53412;BMP280;39307;52.870;13.660;2023-06-24T13:31:17;101562.97;;;28.98
53412;BMP280;39307;52.870;13.660;2023-06-24T13:33:44;101571.59;;;29.00
53412;BMP280;39307;52.870;13.660;2023-06-24T13:36:35;101559.16;;;29.03
53412;BMP280;39307;52.870;13.660;2023-06-24T13:39:01;101565.00;;;28.82
53412;BMP280;39307;52.870;13.660;2023-06-24T13:41:28;101568.31;;;28.74
53412;BMP280;39307;52.870;13.660;2023-06-24T13:43:54;101560.50;;;28.73
53412;BMP280;39307;52.870;13.660;2023-06-24T13:46:20;101557.63;;;28.60
53412;BMP280;39307;52.870;13.660;2023-06-24T13:48:46;101563.59;;;28.47
53412;BMP280;39307;52.870;13.660;2023-06-24T13:51:13;101564.97;;;28.49
53412;BMP280;39307;52.870;13.660;2023-06-24T13:53:39;101556.81;;;28.59
53412;BMP280;39307;52.870;13.660;2023-06-24T13:56:05;101559.78;;;28.63
53412;BMP280;39307;52.870;13.660;2023-06-24T13:58:31;101556.78;;;28.64
53412;BMP280;39307;52.870;13.660;2023-06-24T14:00:57;101555.78;;;28.55
53412;BMP280;39307;52.870;13.660;2023-06-24T14:03:23;101558.53;;;28.50
53412;BMP280;39307;52.870;13.660;2023-06-24T14:05:50;101556.91;;;28.44
53412;BMP280;39307;52.870;13.660;2023-06-24T14:08:16;101552.94;;;28.32
53412;BMP280;39307;52.870;13.660;2023-06-24T14:10:42;101555.97;;;28.16
53412;BMP280;39307;52.870;13.660;2023-06-24T14:13:08;101550.97;;;28.00